createdAt,value
2022-11-19T00:00:15.745Z,952.93
2022-11-19T00:02:15.844Z,952.92
2022-11-19T00:03:15.721Z,952.9
2022-11-19T00:04:15.618Z,952.88
2022-11-19T00:05:15.821Z,952.87
2022-11-19T00:06:15.690Z,952.86
2022-11-19T00:08:15.909Z,952.88
2022-11-19T00:11:15.843Z,952.89
2022-11-19T00:12:15.811Z,952.86
2022-11-19T00:13:15.729Z,952.9
2022-11-19T00:14:15.850Z,952.87
2022-11-19T00:15:15.824Z,952.9
2022-11-19T00:16:15.887Z,952.86
2022-11-19T00:18:15.828Z,952.84
2022-11-19T00:19:15.695Z,952.83
2022-11-19T00:20:15.799Z,952.8
2022-11-19T00:21:15.729Z,952.79
2022-11-19T00:22:15.727Z,952.78
2022-11-19T00:25:15.731Z,952.75
2022-11-19T00:26:15.837Z,952.76
2022-11-19T00:27:15.707Z,952.78
2022-11-19T00:29:18.110Z,952.79
2022-11-19T00:30:40.590Z,952.82
2022-11-19T00:31:15.914Z,952.79
2022-11-19T00:32:15.764Z,952.78
2022-11-19T00:33:15.916Z,952.8
2022-11-19T00:34:15.891Z,952.75
2022-11-19T00:35:15.817Z,952.76
2022-11-19T00:36:15.769Z,952.75
2022-11-19T00:37:15.911Z,952.72
2022-11-19T00:38:15.892Z,952.74
2022-11-19T00:39:15.787Z,952.73
2022-11-19T00:40:15.745Z,952.74
2022-11-19T00:42:15.782Z,952.75
2022-11-19T00:43:15.731Z,952.76
2022-11-19T00:44:15.831Z,952.77
2022-11-19T00:45:15.891Z,952.78
2022-11-19T00:46:15.810Z,952.77
2022-11-19T00:47:15.730Z,952.78
2022-11-19T00:49:15.881Z,952.76
2022-11-19T00:50:15.767Z,952.75
2022-11-19T00:51:15.759Z,952.73
2022-11-19T00:53:15.815Z,952.72
2022-11-19T00:55:15.872Z,952.75
2022-11-19T00:56:16.849Z,952.74
2022-11-19T00:57:15.807Z,952.76
2022-11-19T00:59:15.949Z,952.79
2022-11-19T01:00:15.796Z,952.8
2022-11-19T01:01:15.969Z,952.81
2022-11-19T01:02:16.966Z,952.78
2022-11-19T01:03:15.783Z,952.81
2022-11-19T01:05:15.955Z,952.84
2022-11-19T01:06:19.009Z,952.82
2022-11-19T01:08:15.846Z,952.85
2022-11-19T01:09:16.021Z,952.88
2022-11-19T01:10:15.928Z,952.86
2022-11-19T01:11:15.830Z,952.88
2022-11-19T01:12:15.965Z,952.91
2022-11-19T01:14:16.052Z,952.92
2022-11-19T01:15:15.962Z,952.91
2022-11-19T01:16:15.890Z,952.93
2022-11-19T01:17:15.869Z,952.94
2022-11-19T01:18:15.931Z,952.95
2022-11-19T01:19:15.891Z,952.96
2022-11-19T01:20:15.938Z,952.99
2022-11-19T01:21:15.912Z,953
2022-11-19T01:22:15.911Z,952.94
2022-11-19T01:23:17.004Z,953.02
2022-11-19T01:24:16.011Z,952.97
2022-11-19T01:26:15.884Z,952.96
2022-11-19T01:28:15.924Z,952.97
2022-11-19T01:30:16.009Z,952.99
2022-11-19T01:31:15.959Z,953
2022-11-19T01:32:15.919Z,953.03
2022-11-19T01:33:15.966Z,953.05
2022-11-19T01:34:15.990Z,953.03
2022-11-19T01:36:15.907Z,953.04
2022-11-19T01:37:15.897Z,953.07
2022-11-19T01:38:15.873Z,953.06
2022-11-19T01:39:15.930Z,953.04
2022-11-19T01:40:15.899Z,953.05
2022-11-19T01:41:15.992Z,953.08
2022-11-19T01:42:15.913Z,953.05
2022-11-19T01:43:15.939Z,953.09
2022-11-19T01:44:16.027Z,953.06
2022-11-19T01:45:15.903Z,953.1
2022-11-19T01:47:15.937Z,953.13
2022-11-19T01:49:15.966Z,953.12
2022-11-19T01:51:15.972Z,953.11
2022-11-19T01:52:17.715Z,953.12
2022-11-19T01:53:15.964Z,953.13
2022-11-19T01:54:15.960Z,953.12
2022-11-19T01:55:15.950Z,953.11
2022-11-19T01:56:15.995Z,953.15
2022-11-19T01:57:15.906Z,953.18
2022-11-19T01:58:16.213Z,953.14
2022-11-19T01:59:15.913Z,953.17
2022-11-19T02:00:15.957Z,953.18
2022-11-19T02:01:15.928Z,953.19
2022-11-19T02:02:16.007Z,953.2
2022-11-19T02:03:16.012Z,953.24
2022-11-19T02:04:16.095Z,953.28
2022-11-19T02:05:15.967Z,953.32
2022-11-19T02:06:16.071Z,953.3
2022-11-19T02:07:16.180Z,953.27
2022-11-19T02:08:16.084Z,953.3
2022-11-19T02:09:16.142Z,953.29
2022-11-19T02:10:15.985Z,953.3
2022-11-19T02:12:17.352Z,953.31
2022-11-19T02:13:15.997Z,953.3
2022-11-19T02:14:15.930Z,953.31
2022-11-19T02:15:15.961Z,953.3
2022-11-19T02:16:16.002Z,953.29
2022-11-19T02:18:16.206Z,953.27
2022-11-19T02:19:16.292Z,953.28
2022-11-19T02:20:15.996Z,953.27
2022-11-19T02:21:16.130Z,953.31
2022-11-19T02:22:16.192Z,953.26
2022-11-19T02:24:17.367Z,953.21
2022-11-19T02:25:16.126Z,953.22
2022-11-19T02:26:16.167Z,953.27
2022-11-19T02:27:17.442Z,953.29
2022-11-19T02:28:16.113Z,953.28
2022-11-19T02:29:16.115Z,953.26
2022-11-19T02:30:16.216Z,953.25
2022-11-19T02:31:16.114Z,953.26
2022-11-19T02:32:16.194Z,953.28
2022-11-19T02:34:16.115Z,953.24
2022-11-19T02:35:16.034Z,953.31
2022-11-19T02:36:16.081Z,953.3
2022-11-19T02:37:15.995Z,953.28
2022-11-19T02:38:15.986Z,953.29
2022-11-19T02:39:16.390Z,953.26
2022-11-19T02:41:16.094Z,953.24
2022-11-19T02:44:16.306Z,953.25
2022-11-19T02:45:16.086Z,953.24
2022-11-19T02:46:16.250Z,953.25
2022-11-19T02:47:16.114Z,953.27
2022-11-19T02:48:16.069Z,953.26
2022-11-19T02:49:16.314Z,953.28
2022-11-19T02:50:16.088Z,953.29
2022-11-19T02:51:16.076Z,953.28
2022-11-19T02:52:16.150Z,953.29
2022-11-19T02:53:17.446Z,953.25
2022-11-19T02:54:16.148Z,953.28
2022-11-19T02:55:16.189Z,953.26
2022-11-19T02:56:16.277Z,953.29
2022-11-19T02:57:16.169Z,953.27
2022-11-19T02:58:16.141Z,953.31
2022-11-19T03:00:16.119Z,953.33
2022-11-19T03:02:16.156Z,953.31
2022-11-19T03:03:16.244Z,953.27
2022-11-19T03:04:16.273Z,953.3
2022-11-19T03:06:16.189Z,953.28
2022-11-19T03:09:16.395Z,953.32
2022-11-19T03:10:16.190Z,953.29
2022-11-19T03:12:16.162Z,953.31
2022-11-19T03:13:17.554Z,953.33
2022-11-19T03:14:17.616Z,953.31
2022-11-19T03:15:16.244Z,953.32
2022-11-19T03:16:16.242Z,953.28
2022-11-19T03:18:16.178Z,953.29
2022-11-19T03:19:17.194Z,953.28
2022-11-19T03:21:16.157Z,953.25
2022-11-19T03:22:16.143Z,953.27
2022-11-19T03:24:16.219Z,953.25
2022-11-19T03:26:16.156Z,953.29
2022-11-19T03:27:16.302Z,953.25
2022-11-19T03:28:17.235Z,953.26
2022-11-19T03:29:16.349Z,953.29
2022-11-19T03:30:16.209Z,953.26
2022-11-19T03:31:16.190Z,953.28
2022-11-19T03:32:16.327Z,953.26
2022-11-19T03:33:16.277Z,953.28
2022-11-19T03:34:17.287Z,953.29
2022-11-19T03:35:16.230Z,953.24
2022-11-19T03:36:16.312Z,953.25
2022-11-19T03:37:16.346Z,953.22
2022-11-19T03:38:16.179Z,953.24
2022-11-19T03:39:16.389Z,953.2
2022-11-19T03:40:16.178Z,953.25
2022-11-19T03:41:16.226Z,953.2
2022-11-19T03:42:16.371Z,953.21
2022-11-19T03:43:16.154Z,953.2
2022-11-19T03:44:16.272Z,953.18
2022-11-19T03:45:16.229Z,953.2
2022-11-19T03:46:16.291Z,953.18
2022-11-19T03:47:16.271Z,953.19
2022-11-19T03:48:16.418Z,953.16
2022-11-19T03:49:16.190Z,953.17
2022-11-19T03:50:16.245Z,953.15
2022-11-19T03:51:16.253Z,953.17
2022-11-19T03:52:16.163Z,953.16
2022-11-19T03:53:16.247Z,953.13
2022-11-19T03:54:16.337Z,953.15
2022-11-19T03:55:16.229Z,953.14
2022-11-19T03:57:17.351Z,953.11
2022-11-19T03:58:16.368Z,953.14
2022-11-19T04:00:16.221Z,953.15
2022-11-19T04:01:16.257Z,953.13
2022-11-19T04:02:16.332Z,953.14
2022-11-19T04:03:16.216Z,953.12
2022-11-19T04:04:16.289Z,953.1
2022-11-19T04:05:16.300Z,953.19
2022-11-19T04:06:16.353Z,953.14
2022-11-19T04:07:16.381Z,953.19
2022-11-19T04:08:16.294Z,953.22
2022-11-19T04:09:16.248Z,953.25
2022-11-19T04:10:16.357Z,953.21
2022-11-19T04:12:16.274Z,953.27
2022-11-19T04:13:16.239Z,953.26
2022-11-19T04:14:16.333Z,953.23
2022-11-19T04:15:17.403Z,953.21
2022-11-19T04:16:16.296Z,953.16
2022-11-19T04:17:16.315Z,953.17
2022-11-19T04:18:16.439Z,953.21
2022-11-19T04:19:16.655Z,953.16
2022-11-19T04:20:16.289Z,953.15
2022-11-19T04:21:16.276Z,953.17
2022-11-19T04:23:16.360Z,953.16
2022-11-19T04:24:16.255Z,953.18
2022-11-19T04:25:16.410Z,953.16
2022-11-19T04:26:16.379Z,953.07
2022-11-19T04:27:16.372Z,953.19
2022-11-19T04:28:16.459Z,953.16
2022-11-19T04:29:16.512Z,953.18
2022-11-19T04:30:16.447Z,953.17
2022-11-19T04:31:17.962Z,953.18
2022-11-19T04:33:16.287Z,953.2
2022-11-19T04:34:16.429Z,953.16
2022-11-19T04:35:16.378Z,953.15
2022-11-19T04:36:16.500Z,953.2
2022-11-19T04:37:16.371Z,953.16
2022-11-19T04:38:16.348Z,953.18
2022-11-19T04:39:16.749Z,953.19
2022-11-19T04:40:16.392Z,953.21
2022-11-19T04:41:16.345Z,953.25
2022-11-19T04:42:16.479Z,953.29
2022-11-19T04:43:16.304Z,953.31
2022-11-19T04:44:17.573Z,953.35
2022-11-19T04:45:16.380Z,953.33
2022-11-19T04:46:16.444Z,953.32
2022-11-19T04:47:16.499Z,953.31
2022-11-19T04:48:16.321Z,953.36
2022-11-19T04:49:16.491Z,953.39
2022-11-19T04:50:16.378Z,953.36
2022-11-19T04:51:16.323Z,953.38
2022-11-19T04:52:16.452Z,953.4
2022-11-19T04:53:16.482Z,953.42
2022-11-19T04:56:16.424Z,953.36
2022-11-19T04:57:16.449Z,953.41
2022-11-19T04:58:16.494Z,953.39
2022-11-19T04:59:16.807Z,953.37
2022-11-19T05:00:16.398Z,953.32
2022-11-19T05:01:17.597Z,953.33
2022-11-19T05:02:16.473Z,953.3
2022-11-19T05:03:16.457Z,953.29
2022-11-19T05:04:17.574Z,953.31
2022-11-19T05:05:16.488Z,953.3
2022-11-19T05:06:16.373Z,953.34
2022-11-19T05:08:16.401Z,953.35
2022-11-19T05:09:16.585Z,953.34
2022-11-19T05:11:16.455Z,953.31
2022-11-19T05:13:16.423Z,953.32
2022-11-19T05:14:16.410Z,953.31
2022-11-19T05:15:16.443Z,953.29
2022-11-19T05:16:16.615Z,953.33
2022-11-19T05:17:16.492Z,953.34
2022-11-19T05:18:16.490Z,953.32
2022-11-19T05:19:16.576Z,953.34
2022-11-19T05:21:16.474Z,953.31
2022-11-19T05:22:16.496Z,953.3
2022-11-19T05:23:16.541Z,953.28
2022-11-19T05:24:16.387Z,953.31
2022-11-19T05:25:16.486Z,953.29
2022-11-19T05:27:16.504Z,953.25
2022-11-19T05:28:16.590Z,953.31
2022-11-19T05:29:16.596Z,953.29
2022-11-19T05:30:17.728Z,953.27
2022-11-19T05:31:16.512Z,953.29
2022-11-19T05:32:16.609Z,953.28
2022-11-19T05:33:16.562Z,953.29
2022-11-19T05:34:16.657Z,953.24
2022-11-19T05:35:16.561Z,953.28
2022-11-19T05:36:16.764Z,953.27
2022-11-19T05:39:22.011Z,953.29
2022-11-19T05:40:16.601Z,953.27
2022-11-19T05:41:16.601Z,953.28
2022-11-19T05:43:16.571Z,953.27
2022-11-19T05:44:16.526Z,953.28
2022-11-19T05:45:16.429Z,953.26
2022-11-19T05:46:16.573Z,953.24
2022-11-19T05:47:16.551Z,953.22
2022-11-19T05:48:16.573Z,953.26
2022-11-19T05:49:16.864Z,953.23
2022-11-19T05:50:16.482Z,953.22
2022-11-19T05:52:16.669Z,953.21
2022-11-19T05:53:16.651Z,953.25
2022-11-19T05:54:16.548Z,953.23
2022-11-19T05:55:16.449Z,953.24
2022-11-19T05:56:16.583Z,953.27
2022-11-19T05:58:16.600Z,953.24
2022-11-19T05:59:18.169Z,953.26
2022-11-19T06:00:16.676Z,953.27
2022-11-19T06:01:16.561Z,953.26
2022-11-19T06:02:16.471Z,953.29
2022-11-19T06:03:16.533Z,953.31
2022-11-19T06:04:16.643Z,953.3
2022-11-19T06:05:16.730Z,953.32
2022-11-19T06:06:16.520Z,953.34
2022-11-19T06:07:16.760Z,953.3
2022-11-19T06:08:16.577Z,953.33
2022-11-19T06:09:16.659Z,953.36
2022-11-19T06:10:16.566Z,953.32
2022-11-19T06:11:16.519Z,953.33
2022-11-19T06:12:16.640Z,953.39
2022-11-19T06:14:18.024Z,953.4
2022-11-19T06:16:16.597Z,953.39
2022-11-19T06:17:16.684Z,953.43
2022-11-19T06:18:16.533Z,953.45
2022-11-19T06:19:16.738Z,953.46
2022-11-19T06:20:16.564Z,953.48
2022-11-19T06:22:16.577Z,953.49
2022-11-19T06:23:16.665Z,953.5
2022-11-19T06:24:16.596Z,953.51
2022-11-19T06:27:16.730Z,953.55
2022-11-19T06:28:16.533Z,953.51
2022-11-19T06:29:16.935Z,953.57
2022-11-19T06:30:16.651Z,953.56
2022-11-19T06:31:16.585Z,953.61
2022-11-19T06:32:16.651Z,953.59
2022-11-19T06:33:16.650Z,953.6
2022-11-19T06:34:16.704Z,953.63
2022-11-19T06:35:16.578Z,953.64
2022-11-19T06:36:16.571Z,953.63
2022-11-19T06:37:16.744Z,953.62
2022-11-19T06:38:16.744Z,953.64
2022-11-19T06:39:16.892Z,953.66
2022-11-19T06:40:16.773Z,953.65
2022-11-19T06:41:16.690Z,953.66
2022-11-19T06:42:16.718Z,953.68
2022-11-19T06:43:16.734Z,953.71
2022-11-19T06:44:16.746Z,953.76
2022-11-19T06:45:16.644Z,953.77
2022-11-19T06:46:16.712Z,953.79
2022-11-19T06:47:16.664Z,953.78
2022-11-19T06:48:16.708Z,953.84
2022-11-19T06:50:16.729Z,953.83
2022-11-19T06:51:16.700Z,953.86
2022-11-19T06:52:16.718Z,953.91
2022-11-19T06:53:16.765Z,953.9
2022-11-19T06:54:16.702Z,953.91
2022-11-19T06:55:16.655Z,953.97
2022-11-19T06:56:16.806Z,953.98
2022-11-19T06:57:16.668Z,953.97
2022-11-19T06:58:16.721Z,954.01
2022-11-19T06:59:17.049Z,954.04
2022-11-19T07:00:18.153Z,954.06
2022-11-19T07:01:16.802Z,954.11
2022-11-19T07:02:20.334Z,954.09
2022-11-19T07:03:16.758Z,954.11
2022-11-19T07:04:16.738Z,954.1
2022-11-19T07:05:16.778Z,954.13
2022-11-19T07:06:16.698Z,954.12
2022-11-19T07:07:17.005Z,954.19
2022-11-19T07:08:16.725Z,954.21
2022-11-19T07:09:16.833Z,954.18
2022-11-19T07:10:16.840Z,954.24
2022-11-19T07:13:16.812Z,954.28
2022-11-19T07:15:16.870Z,954.27
2022-11-19T07:16:16.778Z,954.3
2022-11-19T07:17:16.805Z,954.31
2022-11-19T07:18:17.804Z,954.32
2022-11-19T07:19:17.075Z,954.35
2022-11-19T07:20:16.821Z,954.36
2022-11-19T07:21:16.884Z,954.41
2022-11-19T07:22:16.908Z,954.4
2022-11-19T07:23:16.819Z,954.43
2022-11-19T07:24:17.761Z,954.41
2022-11-19T07:25:16.815Z,954.45
2022-11-19T07:27:16.948Z,954.43
2022-11-19T07:29:16.898Z,954.44
2022-11-19T07:30:16.749Z,954.47
2022-11-19T07:31:16.838Z,954.45
2022-11-19T07:32:16.885Z,954.44
2022-11-19T07:33:16.689Z,954.47
2022-11-19T07:34:16.851Z,954.48
2022-11-19T07:35:16.883Z,954.44
2022-11-19T07:36:18.648Z,954.45
2022-11-19T07:37:16.910Z,954.51
2022-11-19T07:39:16.834Z,954.52
2022-11-19T07:40:16.793Z,954.53
2022-11-19T07:41:16.848Z,954.51
2022-11-19T07:42:16.772Z,954.53
2022-11-19T07:44:16.852Z,954.54
2022-11-19T07:45:16.753Z,954.58
2022-11-19T07:47:16.871Z,954.6
2022-11-19T07:49:17.152Z,954.58
2022-11-19T07:50:16.805Z,954.61
2022-11-19T07:51:16.764Z,954.6
2022-11-19T07:54:16.971Z,954.61
2022-11-19T07:56:17.924Z,954.62
2022-11-19T07:57:16.980Z,954.61
2022-11-19T07:58:17.934Z,954.63
2022-11-19T08:00:16.887Z,954.67
2022-11-19T08:01:16.880Z,954.66
2022-11-19T08:02:16.985Z,954.71
2022-11-19T08:04:16.934Z,954.72
2022-11-19T08:06:16.956Z,954.7
2022-11-19T08:07:16.948Z,954.73
2022-11-19T08:09:17.209Z,954.7
2022-11-19T08:10:16.895Z,954.72
2022-11-19T08:13:16.993Z,954.68
2022-11-19T08:14:16.831Z,954.69
2022-11-19T08:15:16.863Z,954.68
2022-11-19T08:17:16.910Z,954.66
2022-11-19T08:18:16.998Z,954.67
2022-11-19T08:19:18.439Z,954.64
2022-11-19T08:20:16.864Z,954.62
2022-11-19T08:21:16.963Z,954.63
2022-11-19T08:22:17.013Z,954.61
2022-11-19T08:23:16.983Z,954.59
2022-11-19T08:25:21.111Z,954.62
2022-11-19T08:26:16.953Z,954.63
2022-11-19T08:27:16.892Z,954.69
2022-11-19T08:29:17.024Z,954.76
2022-11-19T08:30:16.871Z,954.8
2022-11-19T08:31:17.007Z,954.85
2022-11-19T08:32:17.006Z,954.89
2022-11-19T08:33:16.965Z,954.88
2022-11-19T08:34:18.305Z,954.84
2022-11-19T08:35:17.003Z,954.89
2022-11-19T08:37:16.924Z,954.88
2022-11-19T08:38:17.016Z,954.89
2022-11-19T08:39:16.931Z,954.87
2022-11-19T08:40:18.152Z,954.86
2022-11-19T08:41:17.023Z,954.83
2022-11-19T08:42:17.037Z,954.85
2022-11-19T08:43:17.109Z,954.84
2022-11-19T08:44:17.308Z,954.86
2022-11-19T08:45:20.730Z,954.87
2022-11-19T08:46:16.892Z,954.86
2022-11-19T08:47:16.941Z,954.88
2022-11-19T08:48:17.076Z,954.9
2022-11-19T08:49:17.041Z,954.91
2022-11-19T08:51:17.048Z,954.89
2022-11-19T08:52:17.052Z,954.91
2022-11-19T08:53:17.034Z,954.93
2022-11-19T08:54:17.295Z,954.89
2022-11-19T08:55:16.953Z,954.91
2022-11-19T08:56:18.212Z,954.87
2022-11-19T08:57:18.486Z,954.83
2022-11-19T08:59:17.193Z,954.84
2022-11-19T09:00:16.926Z,954.82
2022-11-19T09:02:16.983Z,954.85
2022-11-19T09:03:16.997Z,954.89
2022-11-19T09:04:17.323Z,954.91
2022-11-19T09:05:16.986Z,954.94
2022-11-19T09:06:18.340Z,954.93
2022-11-19T09:07:17.076Z,954.92
2022-11-19T09:09:18.342Z,954.94
2022-11-19T09:10:16.963Z,954.89
2022-11-19T09:11:17.211Z,954.9
2022-11-19T09:13:17.113Z,954.89
2022-11-19T09:14:17.150Z,954.9
2022-11-19T09:15:16.965Z,954.87
2022-11-19T09:16:17.010Z,954.85
2022-11-19T09:17:17.105Z,954.84
2022-11-19T09:18:17.141Z,954.81
2022-11-19T09:20:16.968Z,954.82
2022-11-19T09:21:17.023Z,954.83
2022-11-19T09:24:17.354Z,954.84
2022-11-19T09:25:17.083Z,954.87
2022-11-19T09:26:17.208Z,954.92
2022-11-19T09:27:17.005Z,954.94
2022-11-19T09:29:18.465Z,954.96
2022-11-19T09:30:17.145Z,954.97
2022-11-19T09:31:17.173Z,954.98
2022-11-19T09:32:21.128Z,954.94
2022-11-19T09:33:17.201Z,954.95
2022-11-19T09:34:17.437Z,954.98
2022-11-19T09:35:17.062Z,954.91
2022-11-19T09:36:17.169Z,954.89
2022-11-19T09:37:17.007Z,954.91
2022-11-19T09:38:17.236Z,954.92
2022-11-19T09:39:17.017Z,954.95
2022-11-19T09:40:17.092Z,955
2022-11-19T09:41:17.032Z,955.06
2022-11-19T09:43:17.161Z,955.01
2022-11-19T09:44:18.211Z,954.99
2022-11-19T09:45:17.188Z,955.02
2022-11-19T09:46:17.131Z,955.03
2022-11-19T09:47:17.047Z,955.02
2022-11-19T09:48:17.254Z,955.03
2022-11-19T09:49:17.124Z,954.99
2022-11-19T09:50:18.039Z,955
2022-11-19T09:53:17.222Z,954.98
2022-11-19T09:54:17.554Z,954.99
2022-11-19T09:55:17.257Z,955.02
2022-11-19T09:56:17.138Z,955
2022-11-19T09:57:17.136Z,955.01
2022-11-19T09:59:17.263Z,954.98
2022-11-19T10:00:17.211Z,954.99
2022-11-19T10:01:18.138Z,954.98
2022-11-19T10:03:17.299Z,954.92
2022-11-19T10:04:18.332Z,954.9
2022-11-19T10:05:17.186Z,954.88
2022-11-19T10:06:17.120Z,954.85
2022-11-19T10:07:17.448Z,954.87
2022-11-19T10:08:17.149Z,954.91
2022-11-19T10:09:17.236Z,954.85
2022-11-19T10:10:17.296Z,954.83
2022-11-19T10:11:17.301Z,954.89
2022-11-19T10:12:17.229Z,954.84
2022-11-19T10:13:17.202Z,954.85
2022-11-19T10:14:17.534Z,954.82
2022-11-19T10:15:17.168Z,954.8
2022-11-19T10:16:17.321Z,954.78
2022-11-19T10:17:17.300Z,954.72
2022-11-19T10:18:17.268Z,954.74
2022-11-19T10:19:17.350Z,954.73
2022-11-19T10:21:17.279Z,954.74
2022-11-19T10:22:17.232Z,954.72
2022-11-19T10:23:17.300Z,954.74
2022-11-19T10:24:17.493Z,954.69
2022-11-19T10:25:17.303Z,954.7
2022-11-19T10:26:17.155Z,954.69
2022-11-19T10:27:17.375Z,954.66
2022-11-19T10:28:17.138Z,954.69
2022-11-19T10:29:17.545Z,954.68
2022-11-19T10:30:17.353Z,954.65
2022-11-19T10:32:17.284Z,954.64
2022-11-19T10:34:17.255Z,954.63
2022-11-19T10:35:17.142Z,954.64
2022-11-19T10:36:17.294Z,954.61
2022-11-19T10:37:17.254Z,954.63
2022-11-19T10:39:17.596Z,954.61
2022-11-19T10:40:17.295Z,954.65
2022-11-19T10:41:17.324Z,954.59
2022-11-19T10:42:18.325Z,954.64
2022-11-19T10:43:20.688Z,954.62
2022-11-19T10:44:17.585Z,954.64
2022-11-19T10:45:17.345Z,954.63
2022-11-19T10:46:17.341Z,954.6
2022-11-19T10:47:17.286Z,954.57
2022-11-19T10:49:17.552Z,954.6
2022-11-19T10:50:18.335Z,954.58
2022-11-19T10:52:17.248Z,954.57
2022-11-19T10:53:17.323Z,954.59
2022-11-19T10:54:17.215Z,954.55
2022-11-19T10:55:17.325Z,954.53
2022-11-19T10:56:17.315Z,954.6
2022-11-19T10:57:17.316Z,954.56
2022-11-19T10:58:17.264Z,954.54
2022-11-19T10:59:17.576Z,954.55
2022-11-19T11:00:18.438Z,954.56
2022-11-19T11:01:17.320Z,954.54
2022-11-19T11:02:19.376Z,954.57
2022-11-19T11:03:17.366Z,954.54
2022-11-19T11:04:17.404Z,954.51
2022-11-19T11:05:17.223Z,954.52
2022-11-19T11:06:17.399Z,954.5
2022-11-19T11:07:17.464Z,954.51
2022-11-19T11:10:17.373Z,954.47
2022-11-19T11:11:17.336Z,954.48
2022-11-19T11:12:17.458Z,954.47
2022-11-19T11:14:17.387Z,954.46
2022-11-19T11:15:17.378Z,954.43
2022-11-19T11:16:17.326Z,954.46
2022-11-19T11:17:17.412Z,954.52
2022-11-19T11:18:17.321Z,954.47
2022-11-19T11:19:17.860Z,954.52
2022-11-19T11:20:17.293Z,954.5
2022-11-19T11:21:17.398Z,954.47
2022-11-19T11:22:17.270Z,954.45
2022-11-19T11:23:17.310Z,954.43
2022-11-19T11:24:17.431Z,954.46
2022-11-19T11:25:17.361Z,954.45
2022-11-19T11:26:18.568Z,954.39
2022-11-19T11:28:17.368Z,954.33
2022-11-19T11:29:17.698Z,954.32
2022-11-19T11:30:17.385Z,954.27
2022-11-19T11:31:17.334Z,954.29
2022-11-19T11:32:17.467Z,954.28
2022-11-19T11:33:17.448Z,954.25
2022-11-19T11:34:17.430Z,954.26
2022-11-19T11:35:17.405Z,954.25
2022-11-19T11:37:17.371Z,954.22
2022-11-19T11:38:17.325Z,954.2
2022-11-19T11:40:17.326Z,954.24
2022-11-19T11:42:02.352Z,954.18
2022-11-19T11:42:18.046Z,954.17
2022-11-19T11:43:17.420Z,954.16
2022-11-19T11:44:17.403Z,954.19
2022-11-19T11:46:18.714Z,954.23
2022-11-19T11:47:17.460Z,954.18
2022-11-19T11:48:17.453Z,954.25
2022-11-19T11:50:17.480Z,954.23
2022-11-19T11:51:17.433Z,954.21
2022-11-19T11:52:17.427Z,954.18
2022-11-19T11:53:17.516Z,954.16
2022-11-19T11:54:18.258Z,954.23
2022-11-19T11:55:17.379Z,954.15
2022-11-19T11:56:17.446Z,954.1
2022-11-19T11:57:17.441Z,954.04
2022-11-19T11:58:17.396Z,954.01
2022-11-19T11:59:17.870Z,954.02
2022-11-19T12:00:17.394Z,953.99
2022-11-19T12:01:18.787Z,954
2022-11-19T12:02:17.468Z,954.03
2022-11-19T12:03:17.466Z,954.06
2022-11-19T12:04:17.390Z,954.11
2022-11-19T12:05:17.530Z,954.12
2022-11-19T12:06:17.484Z,954.14
2022-11-19T12:07:17.525Z,954.18
2022-11-19T12:08:17.532Z,954.14
2022-11-19T12:09:17.794Z,954.17
2022-11-19T12:10:17.440Z,954.14
2022-11-19T12:13:17.567Z,954.1
2022-11-19T12:14:17.541Z,954.09
2022-11-19T12:16:17.576Z,954.05
2022-11-19T12:18:18.390Z,954.03
2022-11-19T12:19:17.786Z,954.02
2022-11-19T12:20:17.485Z,953.99
2022-11-19T12:21:17.443Z,953.98
2022-11-19T12:22:17.526Z,954.01
2022-11-19T12:23:17.537Z,954.06
2022-11-19T12:24:18.421Z,954.05
2022-11-19T12:25:17.542Z,954.1
2022-11-19T12:26:17.464Z,954.04
2022-11-19T12:27:17.487Z,954.06
2022-11-19T12:28:17.602Z,954.08
2022-11-19T12:29:17.773Z,954.07
2022-11-19T12:30:17.557Z,954.06
2022-11-19T12:34:17.454Z,954.1
2022-11-19T12:35:17.455Z,954.09
2022-11-19T12:36:17.622Z,954.06
2022-11-19T12:37:17.550Z,954.07
2022-11-19T12:38:18.444Z,954.03
2022-11-19T12:39:17.727Z,954.07
2022-11-19T12:40:17.545Z,953.97
2022-11-19T12:41:17.646Z,954.06
2022-11-19T12:43:17.563Z,954.06
2022-11-19T12:44:18.538Z,954.1
2022-11-19T12:45:17.601Z,954.06
2022-11-19T12:46:17.608Z,954.1
2022-11-19T12:48:17.654Z,954.07
2022-11-19T12:49:17.937Z,954.13
2022-11-19T12:50:17.644Z,954.06
2022-11-19T12:51:17.599Z,954.09
2022-11-19T12:53:17.577Z,953.99
2022-11-19T12:54:20.853Z,954.09
2022-11-19T12:56:17.675Z,954.11
2022-11-19T12:58:17.493Z,954.06
2022-11-19T12:59:17.928Z,954.09
2022-11-19T13:00:17.523Z,954.05
2022-11-19T13:01:17.636Z,954.04
2022-11-19T13:02:17.553Z,954.11
2022-11-19T13:04:17.550Z,954.07
2022-11-19T13:05:17.538Z,954.04
2022-11-19T13:06:18.124Z,954.03
2022-11-19T13:07:17.549Z,954.01
2022-11-19T13:08:17.713Z,953.99
2022-11-19T13:09:17.746Z,954.01
2022-11-19T13:10:19.151Z,953.98
2022-11-19T13:11:17.600Z,954.01
2022-11-19T13:12:17.539Z,953.94
2022-11-19T13:13:17.720Z,953.93
2022-11-19T13:14:17.738Z,953.91
2022-11-19T13:15:17.541Z,953.93
2022-11-19T13:16:17.700Z,953.95
2022-11-19T13:17:17.670Z,953.94
2022-11-19T13:18:17.595Z,953.95
2022-11-19T13:20:17.599Z,953.93
2022-11-19T13:21:17.641Z,953.91
2022-11-19T13:22:17.600Z,953.97
2022-11-19T13:23:17.749Z,953.93
2022-11-19T13:24:17.693Z,953.94
2022-11-19T13:25:17.606Z,953.92
2022-11-19T13:26:17.671Z,953.9
2022-11-19T13:29:17.863Z,953.89
2022-11-19T13:30:17.598Z,953.9
2022-11-19T13:31:17.598Z,953.94
2022-11-19T13:32:17.588Z,953.96
2022-11-19T13:33:17.662Z,953.99
2022-11-19T13:34:17.675Z,954.01
2022-11-19T13:35:17.594Z,954.05
2022-11-19T13:36:17.647Z,954.04
2022-11-19T13:37:17.757Z,954.06
2022-11-19T13:38:17.587Z,954.07
2022-11-19T13:39:17.999Z,954.08
2022-11-19T13:41:17.721Z,954.15
2022-11-19T13:42:17.621Z,954.13
2022-11-19T13:43:31.416Z,954.12
2022-11-19T13:44:17.661Z,954.17
2022-11-19T13:45:17.657Z,954.16
2022-11-19T13:46:17.661Z,954.15
2022-11-19T13:47:17.705Z,954.14
2022-11-19T13:48:17.773Z,954.06
2022-11-19T13:49:17.790Z,954.02
2022-11-19T13:50:17.696Z,953.98
2022-11-19T13:51:17.669Z,954.02
2022-11-19T13:52:17.795Z,953.95
2022-11-19T13:53:17.695Z,953.96
2022-11-19T13:54:17.821Z,953.95
2022-11-19T13:56:17.743Z,953.94
2022-11-19T13:57:17.718Z,953.95
2022-11-19T13:58:17.745Z,953.96
2022-11-19T13:59:17.966Z,953.94
2022-11-19T14:00:17.789Z,953.91
2022-11-19T14:01:17.695Z,953.92
2022-11-19T14:02:17.674Z,953.86
2022-11-19T14:03:17.641Z,953.88
2022-11-19T14:04:17.809Z,953.92
2022-11-19T14:05:17.672Z,953.87
2022-11-19T14:06:17.848Z,953.9
2022-11-19T14:07:17.896Z,953.92
2022-11-19T14:08:17.859Z,953.94
2022-11-19T14:09:17.996Z,953.92
2022-11-19T14:10:17.757Z,953.9
2022-11-19T14:11:17.778Z,953.87
2022-11-19T14:12:17.727Z,953.88
2022-11-19T14:13:17.756Z,953.84
2022-11-19T14:14:17.732Z,953.85
2022-11-19T14:15:17.806Z,953.88
2022-11-19T14:16:17.786Z,953.89
2022-11-19T14:17:17.939Z,953.85
2022-11-19T14:18:17.678Z,953.88
2022-11-19T14:20:17.686Z,953.91
2022-11-19T14:21:17.691Z,953.92
2022-11-19T14:22:17.787Z,953.91
2022-11-19T14:23:17.776Z,953.92
2022-11-19T14:25:17.689Z,953.91
2022-11-19T14:26:17.844Z,953.9
2022-11-19T14:27:17.817Z,953.94
2022-11-19T14:28:17.785Z,953.91
2022-11-19T14:29:17.964Z,953.94
2022-11-19T14:31:17.886Z,953.99
2022-11-19T14:32:17.903Z,954
2022-11-19T14:33:17.786Z,954.02
2022-11-19T14:34:17.818Z,954.05
2022-11-19T14:35:17.744Z,954.1
2022-11-19T14:36:17.833Z,954.11
2022-11-19T14:38:17.816Z,954.13
2022-11-19T14:39:18.078Z,954.11
2022-11-19T14:41:17.793Z,954.07
2022-11-19T14:42:17.786Z,954.15
2022-11-19T14:43:17.832Z,954.16
2022-11-19T14:44:17.938Z,954.12
2022-11-19T14:45:17.861Z,954.11
2022-11-19T14:47:17.787Z,954.12
2022-11-19T14:48:17.747Z,954.13